Time;durP1;ratioP1;P1;durP2;ratioP2;P2;SDS_P1;SDS_P2;PMS_P1;PMS_P2;Temp;Humidity;BMP_temperature;BMP_pressure;BME280_temperature;BME280_humidity;BME280_pressure;Samples;Min_cycle;Max_cycle;Signal;HPM_P1;HPM_P2
2022/07/29 00:00:45;;;;;;;4.45;1.10;;;16.10;99.90;;;;;;5095873;28;20399;-77
2022/07/29 00:03:12;;;;;;;4.43;0.80;;;16.10;99.90;;;;;;5095611;28;20519;-77
2022/07/29 00:05:39;;;;;;;5.88;1.20;;;16.10;99.90;;;;;;5095632;28;20071;-78
2022/07/29 00:08:05;;;;;;;3.58;1.25;;;16.10;99.90;;;;;;5096902;28;20193;-76
2022/07/29 00:10:31;;;;;;;3.22;0.95;;;16.10;99.90;;;;;;5096818;28;20032;-77
2022/07/29 00:12:56;;;;;;;3.72;1.70;;;16.20;99.90;;;;;;5095285;28;20058;-77
2022/07/29 00:15:22;;;;;;;3.25;1.20;;;16.20;99.90;;;;;;5095330;28;20035;-77
2022/07/29 00:17:48;;;;;;;3.75;1.13;;;16.20;99.90;;;;;;5095574;28;20052;-77
2022/07/29 00:20:13;;;;;;;3.10;1.15;;;16.20;99.90;;;;;;5095380;28;20051;-78
2022/07/29 00:22:39;;;;;;;4.35;1.23;;;16.20;99.90;;;;;;5096339;28;20052;-77
2022/07/29 00:25:05;;;;;;;4.88;1.20;;;16.20;99.90;;;;;;5096466;28;20047;-78
2022/07/29 00:27:31;;;;;;;6.70;1.35;;;16.30;99.90;;;;;;5096622;28;20105;-77
2022/07/29 00:29:57;;;;;;;3.50;1.17;;;16.20;99.90;;;;;;5096468;28;20039;-76
2022/07/29 00:32:22;;;;;;;10.45;2.92;;;16.20;99.90;;;;;;5096438;28;20070;-77
2022/07/29 00:37:32;;;;;;;6.63;1.20;;;16.20;99.90;;;;;;5096425;28;20044;-76
2022/07/29 00:39:57;;;;;;;4.03;1.23;;;16.20;99.90;;;;;;5095252;28;20518;-76
2022/07/29 00:42:23;;;;;;;4.47;1.95;;;16.20;99.90;;;;;;5096192;28;20046;-77
2022/07/29 00:44:49;;;;;;;3.35;1.30;;;16.20;99.90;;;;;;5096153;28;20058;-77
2022/07/29 00:47:14;;;;;;;5.05;1.70;;;16.20;99.90;;;;;;5096101;28;20102;-77
2022/07/29 00:49:41;;;;;;;3.78;1.63;;;16.20;99.90;;;;;;5094762;28;20093;-77
2022/07/29 00:52:08;;;;;;;5.95;1.58;;;16.20;99.90;;;;;;5094784;28;20128;-77
2022/07/29 00:54:35;;;;;;;6.53;1.90;;;16.20;99.90;;;;;;5094749;28;20040;-77
2022/07/29 00:57:01;;;;;;;6.95;1.70;;;16.30;99.90;;;;;;5095730;28;20398;-77
2022/07/29 00:59:27;;;;;;;3.30;1.77;;;16.20;99.90;;;;;;5095718;28;20426;-77
2022/07/29 01:01:54;;;;;;;4.78;1.60;;;16.20;99.90;;;;;;5094816;28;20070;-78
2022/07/29 01:04:21;;;;;;;5.50;1.75;;;16.20;99.90;;;;;;5094821;28;20044;-76
2022/07/29 01:06:50;;;;;;;4.13;1.50;;;16.20;99.90;;;;;;5094320;28;20407;-77
2022/07/29 01:09:18;;;;;;;7.00;1.70;;;16.20;99.90;;;;;;5094576;28;20044;-77
2022/07/29 01:11:44;;;;;;;5.38;2.13;;;16.20;99.90;;;;;;5094262;28;20482;-77
2022/07/29 01:14:10;;;;;;;7.05;2.70;;;16.20;99.90;;;;;;5095666;28;20051;-77
2022/07/29 01:16:48;;;;;;;6.70;1.85;;;16.20;99.90;;;;;;5094241;28;20047;-77
2022/07/29 01:19:52;;;;;;;4.38;1.88;;;16.20;99.90;;;;;;5094256;28;20487;-77
2022/07/29 01:22:43;;;;;;;3.75;1.60;;;16.20;99.90;;;;;;5062964;28;20502;-77
2022/07/29 01:25:47;;;;;;;5.00;1.48;;;16.20;99.90;;;;;;5087203;28;20052;-77
2022/07/29 01:28:37;;;;;;;4.13;1.77;;;16.20;99.90;;;;;;5093912;28;20081;-76
2022/07/29 01:31:03;;;;;;;8.23;1.95;;;16.20;99.90;;;;;;5094107;28;20059;-76
2022/07/29 01:33:49;;;;;;;6.78;1.95;;;16.20;99.90;;;;;;5093915;28;20047;-77
2022/07/29 01:36:25;;;;;;;6.32;1.70;;;16.30;99.90;;;;;;5095220;28;20373;-77
2022/07/29 01:39:10;;;;;;;6.07;2.00;;;16.30;99.90;;;;;;5093781;28;20059;-77
2022/07/29 01:41:46;;;;;;;5.35;2.15;;;16.30;99.90;;;;;;5095118;28;20039;-77
2022/07/29 01:44:26;;;;;;;4.00;1.90;;;16.20;99.90;;;;;;5095033;28;20054;-77
2022/07/29 01:47:00;;;;;;;5.72;2.40;;;16.20;99.90;;;;;;5110526;28;20064;-77
2022/07/29 01:49:29;;;;;;;7.60;2.22;;;16.30;99.90;;;;;;5094991;28;20081;-77
2022/07/29 01:52:04;;;;;;;7.30;2.30;;;16.30;99.90;;;;;;5093825;28;20075;-77
2022/07/29 01:54:45;;;;;;;5.30;2.13;;;16.30;99.90;;;;;;5093292;28;20116;-77
2022/07/29 01:57:14;;;;;;;7.65;2.42;;;16.30;99.90;;;;;;5093434;28;20051;-77
2022/07/29 01:59:43;;;;;;;4.88;2.08;;;16.20;99.90;;;;;;5095308;28;20040;-77
2022/07/29 02:02:11;;;;;;;7.10;2.10;;;16.20;99.90;;;;;;5093372;28;20063;-77
2022/07/29 02:04:37;;;;;;;6.25;2.10;;;16.20;99.90;;;;;;5093342;28;20166;-77
2022/07/29 02:07:06;;;;;;;6.00;1.88;;;16.10;99.90;;;;;;5094429;28;20121;-77
2022/07/29 02:09:36;;;;;;;6.60;1.95;;;16.10;99.90;;;;;;5094342;28;20052;-77
2022/07/29 02:12:04;;;;;;;3.95;1.73;;;16.10;99.90;;;;;;5094571;28;20066;-77
2022/07/29 02:14:35;;;;;;;5.38;1.95;;;16.10;99.90;;;;;;5094507;28;20079;-77
2022/07/29 02:17:01;;;;;;;4.45;1.88;;;16.10;99.90;;;;;;5093400;28;20048;-77
2022/07/29 02:19:29;;;;;;;4.13;1.90;;;16.10;99.90;;;;;;5093155;28;20044;-77
2022/07/29 02:21:57;;;;;;;4.47;2.17;;;16.20;99.90;;;;;;5093099;28;20084;-77
2022/07/29 02:24:24;;;;;;;7.05;2.03;;;16.10;99.90;;;;;;5092727;28;20062;-77
2022/07/29 02:26:52;;;;;;;5.97;2.05;;;16.10;99.90;;;;;;5092833;28;20087;-77
2022/07/29 02:29:22;;;;;;;5.05;2.00;;;16.10;99.90;;;;;;5093201;28;20040;-77
2022/07/29 02:31:49;;;;;;;7.45;2.10;;;16.10;99.90;;;;;;5094224;28;20044;-77
2022/07/29 02:34:16;;;;;;;9.38;1.70;;;16.10;99.90;;;;;;5093193;28;20049;-77
2022/07/29 02:36:43;;;;;;;5.68;1.83;;;16.20;99.90;;;;;;5093894;28;20047;-77
2022/07/29 02:39:11;;;;;;;5.53;1.58;;;16.20;99.90;;;;;;5094137;28;20044;-77
2022/07/29 02:41:42;;;;;;;3.05;1.50;;;16.10;99.90;;;;;;5092728;28;20399;-77
2022/07/29 02:44:26;;;;;;;7.63;1.73;;;16.20;99.90;;;;;;5092811;28;20122;-77
2022/07/29 02:46:58;;;;;;;6.13;1.90;;;16.10;99.90;;;;;;5093899;28;20040;-77
2022/07/29 02:49:38;;;;;;;6.13;1.90;;;16.10;99.90;;;;;;5092584;28;20560;-77
2022/07/29 02:52:18;;;;;;;5.28;1.80;;;16.10;99.90;;;;;;5092784;28;20040;-77
2022/07/29 02:55:29;;;;;;;5.93;1.67;;;16.10;99.90;;;;;;5092918;28;20119;-77
2022/07/29 02:58:02;;;;;;;5.20;1.70;;;16.10;99.90;;;;;;5093870;28;20068;-77
2022/07/29 03:00:30;;;;;;;5.47;1.63;;;16.10;99.90;;;;;;5092573;28;20056;-77
2022/07/29 03:02:58;;;;;;;4.03;2.05;;;16.20;99.90;;;;;;5092466;28;20434;-77
2022/07/29 03:05:25;;;;;;;6.07;1.73;;;16.10;99.90;;;;;;5092836;28;20040;-77
2022/07/29 03:08:01;;;;;;;4.22;1.80;;;16.10;99.90;;;;;;5092505;28;20123;-77
2022/07/29 03:10:27;;;;;;;3.60;1.77;;;16.10;99.90;;;;;;5093742;28;20070;-77
2022/07/29 03:12:55;;;;;;;7.38;2.00;;;16.10;99.90;;;;;;5092649;28;20052;-77
2022/07/29 03:15:22;;;;;;;5.70;2.00;;;16.10;99.90;;;;;;5092389;28;20048;-77
2022/07/29 03:17:48;;;;;;;3.50;1.85;;;16.10;99.90;;;;;;5093698;28;20400;-76
2022/07/29 03:20:15;;;;;;;5.78;1.85;;;16.10;99.90;;;;;;5093577;28;20108;-77
2022/07/29 03:22:46;;;;;;;7.22;2.17;;;16.10;99.90;;;;;;5092190;28;20048;-77
2022/07/29 03:25:13;;;;;;;4.13;1.92;;;16.10;99.90;;;;;;5093601;28;20052;-76
2022/07/29 03:27:39;;;;;;;8.20;2.10;;;16.00;99.90;;;;;;5093456;28;20147;-76
2022/07/29 03:30:06;;;;;;;4.90;1.80;;;16.00;99.90;;;;;;5093545;28;20036;-77
2022/07/29 03:32:32;;;;;;;5.50;1.63;;;16.00;99.90;;;;;;5092530;28;20052;-76
2022/07/29 03:34:58;;;;;;;9.02;2.13;;;16.00;99.90;;;;;;5092419;28;20066;-77
2022/07/29 03:37:23;;;;;;;5.93;2.00;;;16.00;99.90;;;;;;5091970;28;20483;-77
2022/07/29 03:39:52;;;;;;;5.40;1.73;;;16.00;99.90;;;;;;5091845;28;20052;-77
2022/07/29 03:42:20;;;;;;;7.13;2.22;;;16.00;99.90;;;;;;5091815;28;20075;-77
2022/07/29 03:44:48;;;;;;;10.10;2.13;;;16.00;99.90;;;;;;5092475;28;20052;-76
2022/07/29 03:47:16;;;;;;;8.10;2.40;;;16.00;99.90;;;;;;5092342;28;20050;-77
2022/07/29 03:49:44;;;;;;;6.10;2.40;;;15.90;99.90;;;;;;5092628;28;20111;-76
2022/07/29 03:52:10;;;;;;;5.32;2.00;;;15.90;99.90;;;;;;5091891;28;20058;-77
2022/07/29 03:54:36;;;;;;;4.65;1.80;;;15.90;99.90;;;;;;5090479;28;20361;-76
2022/07/29 03:57:03;;;;;;;5.93;1.90;;;15.90;99.90;;;;;;5092942;28;20102;-76
2022/07/29 03:59:32;;;;;;;6.25;2.28;;;15.90;99.90;;;;;;5093313;28;20119;-77
2022/07/29 04:01:58;;;;;;;5.80;2.28;;;15.90;99.90;;;;;;5091673;28;20418;-77
2022/07/29 04:04:25;;;;;;;5.47;1.90;;;15.80;99.90;;;;;;5091732;28;20119;-76
2022/07/29 04:06:51;;;;;;;6.32;2.00;;;15.90;99.90;;;;;;5091699;28;20044;-76
2022/07/29 04:09:16;;;;;;;5.03;2.22;;;15.90;99.90;;;;;;5092944;28;20044;-77
2022/07/29 04:11:43;;;;;;;10.90;2.75;;;15.80;99.90;;;;;;5091879;28;20047;-76
2022/07/29 04:14:09;;;;;;;6.35;2.20;;;15.90;99.90;;;;;;5091377;28;20427;-76
2022/07/29 04:16:34;;;;;;;4.60;2.05;;;15.90;99.90;;;;;;5094190;28;20043;-77
2022/07/29 04:19:00;;;;;;;8.25;2.20;;;15.90;99.90;;;;;;5096684;28;20044;-76
2022/07/29 04:21:26;;;;;;;6.85;2.13;;;15.90;99.90;;;;;;5096667;28;20082;-77
2022/07/29 04:23:51;;;;;;;7.97;2.20;;;15.90;99.90;;;;;;5094900;28;20063;-77
2022/07/29 04:26:18;;;;;;;4.78;2.13;;;15.90;99.90;;;;;;5095013;28;20055;-76
2022/07/29 04:28:45;;;;;;;9.50;2.25;;;15.90;99.90;;;;;;5096414;28;20097;-77
2022/07/29 04:31:12;;;;;;;5.68;2.35;;;15.90;99.90;;;;;;5095021;28;20076;-77
2022/07/29 04:33:38;;;;;;;4.45;2.33;;;15.90;99.90;;;;;;5095176;28;20059;-77
2022/07/29 04:36:04;;;;;;;5.22;2.17;;;15.90;99.90;;;;;;5095000;28;20046;-77
2022/07/29 04:38:30;;;;;;;8.10;2.88;;;15.90;99.90;;;;;;5096113;28;20101;-77
2022/07/29 04:40:55;;;;;;;6.85;2.20;;;15.90;99.90;;;;;;5096311;28;20040;-77
2022/07/29 04:43:21;;;;;;;8.73;2.72;;;15.90;99.90;;;;;;5094797;28;20048;-76
2022/07/29 04:45:47;;;;;;;6.25;2.25;;;15.90;99.90;;;;;;5094570;28;20044;-77
2022/07/29 04:48:12;;;;;;;7.18;2.35;;;15.90;99.90;;;;;;5096028;28;20078;-77
2022/07/29 04:50:39;;;;;;;10.43;2.65;;;16.00;99.90;;;;;;5095691;28;20059;-77
2022/07/29 04:53:05;;;;;;;6.28;2.10;;;15.90;99.90;;;;;;5094514;28;20568;-76
2022/07/29 04:55:31;;;;;;;8.23;2.33;;;16.00;99.90;;;;;;5095995;28;20044;-77
2022/07/29 04:57:56;;;;;;;5.60;2.28;;;15.90;99.90;;;;;;5095592;28;20043;-76
2022/07/29 05:00:23;;;;;;;7.38;2.22;;;16.00;99.90;;;;;;5095883;28;20104;-77
2022/07/29 05:02:49;;;;;;;11.05;2.80;;;16.00;99.90;;;;;;5095865;28;20089;-76
2022/07/29 05:05:15;;;;;;;3.85;2.20;;;16.00;99.90;;;;;;5094534;28;20044;-77
2022/07/29 05:07:41;;;;;;;6.15;2.30;;;16.00;99.90;;;;;;5094251;28;20398;-77
2022/07/29 05:10:07;;;;;;;8.35;2.88;;;16.00;99.90;;;;;;5094253;28;20051;-77
2022/07/29 05:12:33;;;;;;;7.50;2.70;;;16.00;99.90;;;;;;5094124;28;20491;-77
2022/07/29 05:14:59;;;;;;;9.90;2.50;;;16.10;99.90;;;;;;5094084;28;20136;-77
2022/07/29 05:17:25;;;;;;;7.28;2.40;;;16.10;99.90;;;;;;5094095;28;20052;-77
2022/07/29 05:19:51;;;;;;;8.05;2.55;;;16.10;99.90;;;;;;5094334;28;20048;-77
2022/07/29 05:22:20;;;;;;;5.88;2.33;;;16.20;99.90;;;;;;5094885;28;20036;-77
2022/07/29 05:24:46;;;;;;;7.03;2.40;;;16.20;99.90;;;;;;5095106;28;20055;-77
2022/07/29 05:27:13;;;;;;;11.15;3.47;;;16.20;99.90;;;;;;5093627;28;20054;-76
2022/07/29 05:29:39;;;;;;;7.90;2.75;;;16.20;99.90;;;;;;5093329;28;20498;-76
2022/07/29 05:32:05;;;;;;;9.52;2.53;;;16.30;99.90;;;;;;5094074;28;20039;-76
2022/07/29 05:34:31;;;;;;;8.15;2.50;;;16.30;99.90;;;;;;5111076;28;20044;-76
2022/07/29 05:36:57;;;;;;;7.88;2.55;;;16.40;99.90;;;;;;5094945;28;20514;-76
2022/07/29 05:39:23;;;;;;;9.32;2.35;;;16.40;99.90;;;;;;5093683;28;20044;-77
2022/07/29 05:41:49;;;;;;;9.77;2.58;;;16.40;99.90;;;;;;5093829;28;20105;-78
2022/07/29 05:44:15;;;;;;;9.95;2.78;;;16.50;99.90;;;;;;5094836;28;20439;-76
2022/07/29 05:46:40;;;;;;;7.35;3.28;;;16.50;99.90;;;;;;5094841;28;20052;-76
2022/07/29 05:49:07;;;;;;;9.27;2.50;;;16.50;99.90;;;;;;5094876;28;20040;-75
2022/07/29 05:51:36;;;;;;;8.18;2.60;;;16.50;99.90;;;;;;5094939;28;20039;-76
2022/07/29 05:54:01;;;;;;;9.45;2.53;;;16.60;99.90;;;;;;5093628;28;20048;-76
2022/07/29 05:56:28;;;;;;;9.80;2.90;;;16.60;99.90;;;;;;5093398;28;20071;-81
2022/07/29 05:58:53;;;;;;;9.43;2.97;;;16.60;99.90;;;;;;5094584;28;20066;-76
2022/07/29 06:01:19;;;;;;;4.93;2.35;;;16.70;99.90;;;;;;5093521;28;20403;-76
2022/07/29 06:03:45;;;;;;;5.85;2.90;;;16.70;99.90;;;;;;5088118;28;20504;-76
2022/07/29 06:06:11;;;;;;;9.35;2.90;;;16.80;99.90;;;;;;5082671;28;20040;-77
2022/07/29 06:08:37;;;;;;;7.78;2.53;;;16.80;99.90;;;;;;5072666;28;20120;-76
2022/07/29 06:11:04;;;;;;;7.18;2.42;;;16.90;99.90;;;;;;5073686;28;20048;-77
2022/07/29 06:13:30;;;;;;;9.55;2.22;;;17.00;99.90;;;;;;5072543;28;20065;-78
2022/07/29 06:15:56;;;;;;;6.95;2.03;;;17.10;99.90;;;;;;5073999;28;20044;-77
2022/07/29 06:18:23;;;;;;;5.95;2.05;;;17.20;99.90;;;;;;5072399;28;20115;-76
2022/07/29 06:20:53;;;;;;;7.95;2.80;;;17.30;99.90;;;;;;5073952;28;20082;-77
2022/07/29 06:23:20;;;;;;;7.82;2.38;;;17.40;99.90;;;;;;5072284;28;20052;-75
2022/07/29 06:25:46;;;;;;;5.50;2.10;;;17.50;99.90;;;;;;5072242;28;20109;-76
2022/07/29 06:28:12;;;;;;;10.00;3.05;;;17.60;99.90;;;;;;5073779;28;20041;-77
2022/07/29 06:30:39;;;;;;;9.52;2.75;;;17.70;99.90;;;;;;5072588;28;20082;-75
2022/07/29 06:33:05;;;;;;;12.48;3.08;;;17.70;99.90;;;;;;5073747;28;20043;-76
2022/07/29 06:35:34;;;;;;;7.43;2.17;;;17.90;99.90;;;;;;5073806;28;20032;-76
2022/07/29 06:38:00;;;;;;;8.25;2.55;;;17.80;99.90;;;;;;5072528;28;20051;-76
2022/07/29 06:43:10;;;;;;;7.80;2.25;;;17.90;99.90;;;;;;5073866;28;20052;-76
2022/07/29 06:45:36;;;;;;;9.15;2.45;;;18.10;99.90;;;;;;5072415;28;20045;-78
2022/07/29 06:48:02;;;;;;;7.82;2.30;;;18.10;99.90;;;;;;5073570;28;20048;-76
2022/07/29 06:50:27;;;;;;;8.30;2.92;;;18.10;99.90;;;;;;5073739;28;20076;-77
2022/07/29 06:52:53;;;;;;;7.88;2.50;;;18.00;99.90;;;;;;5073912;28;20123;-77
2022/07/29 06:55:19;;;;;;;9.30;2.67;;;18.10;99.90;;;;;;5072140;28;20466;-76
2022/07/29 06:57:46;;;;;;;6.65;2.15;;;18.20;99.90;;;;;;5072167;28;20052;-77
2022/07/29 07:00:12;;;;;;;7.53;3.05;;;18.00;99.90;;;;;;5072406;28;20044;-77
2022/07/29 07:02:38;;;;;;;11.30;2.50;;;17.90;99.90;;;;;;5073571;28;20048;-76
2022/07/29 07:05:05;;;;;;;6.82;2.42;;;18.00;99.90;;;;;;5072186;28;20055;-76
2022/07/29 07:07:31;;;;;;;13.00;2.40;;;17.90;99.90;;;;;;5073576;28;20113;-76
2022/07/29 07:09:57;;;;;;;15.30;2.90;;;17.90;99.90;;;;;;5073456;28;20426;-76
2022/07/29 07:12:22;;;;;;;8.35;2.40;;;18.00;99.90;;;;;;5073253;28;20071;-76
2022/07/29 07:14:48;;;;;;;8.02;2.00;;;18.00;99.90;;;;;;5071975;28;20040;-74
2022/07/29 07:17:13;;;;;;;7.10;3.47;;;18.00;99.90;;;;;;5071950;28;20479;-74
2022/07/29 07:19:42;;;;;;;11.70;2.92;;;18.00;99.90;;;;;;5073101;28;20129;-75
2022/07/29 07:22:08;;;;;;;6.25;2.42;;;18.10;99.90;;;;;;5072191;28;20510;-74
2022/07/29 07:24:33;;;;;;;9.55;2.53;;;17.90;99.90;;;;;;5071688;28;20102;-74
2022/07/29 07:26:59;;;;;;;11.80;2.67;;;18.00;99.90;;;;;;5073271;28;20049;-74
2022/07/29 07:29:25;;;;;;;12.85;2.75;;;17.90;99.90;;;;;;5073087;28;20044;-73
2022/07/29 07:31:50;;;;;;;9.73;2.47;;;18.00;99.90;;;;;;5073354;28;20072;-73
2022/07/29 07:34:16;;;;;;;6.15;2.25;;;18.00;99.90;;;;;;5073070;28;20045;-74
2022/07/29 07:36:41;;;;;;;6.82;2.47;;;18.00;99.90;;;;;;5071801;28;20040;-74
2022/07/29 07:39:07;;;;;;;8.18;2.65;;;18.10;99.90;;;;;;5071714;28;20047;-74
2022/07/29 07:41:33;;;;;;;9.45;3.20;;;18.10;99.90;;;;;;5072918;28;20044;-74
2022/07/29 07:43:58;;;;;;;6.65;2.10;;;18.30;99.90;;;;;;5071666;28;20136;-74
2022/07/29 07:46:24;;;;;;;6.63;2.45;;;18.20;99.90;;;;;;5071723;28;20059;-73
2022/07/29 07:48:51;;;;;;;10.35;2.83;;;18.30;99.90;;;;;;5071920;28;20046;-74
2022/07/29 07:51:17;;;;;;;12.02;2.80;;;18.40;99.90;;;;;;5072685;28;20053;-76
2022/07/29 07:53:44;;;;;;;9.95;2.60;;;18.50;99.90;;;;;;5075445;28;20098;-76
2022/07/29 07:56:10;;;;;;;10.50;2.50;;;18.60;99.90;;;;;;5076593;28;20415;-77
2022/07/29 07:58:36;;;;;;;10.82;2.70;;;18.60;99.90;;;;;;5075330;28;20514;-76
2022/07/29 08:01:01;;;;;;;7.82;2.30;;;18.70;99.90;;;;;;5075536;28;20044;-77
2022/07/29 08:03:27;;;;;;;9.90;2.47;;;18.70;99.90;;;;;;5076649;28;20041;-76
2022/07/29 08:05:54;;;;;;;6.03;2.33;;;18.80;99.90;;;;;;5076658;28;20048;-76
2022/07/29 08:08:20;;;;;;;6.97;2.85;;;19.00;99.90;;;;;;5075269;28;20119;-76
2022/07/29 08:10:52;;;;;;;7.38;2.78;;;18.90;99.90;;;;;;5092137;28;20048;-77
2022/07/29 08:13:19;;;;;;;6.63;2.58;;;18.90;99.90;;;;;;5076687;28;20048;-77
2022/07/29 08:15:45;;;;;;;6.90;2.40;;;19.10;99.90;;;;;;5075521;28;20037;-77
2022/07/29 08:18:12;;;;;;;8.48;2.70;;;19.20;99.90;;;;;;5076384;28;20040;-77
2022/07/29 08:20:39;;;;;;;6.38;2.17;;;19.20;99.90;;;;;;5076475;28;20029;-77
2022/07/29 08:23:08;;;;;;;6.85;2.67;;;19.20;99.90;;;;;;5076114;28;20056;-76
2022/07/29 08:25:37;;;;;;;14.13;3.53;;;19.20;99.90;;;;;;5076300;28;20047;-77
2022/07/29 08:28:03;;;;;;;9.13;3.40;;;19.40;99.90;;;;;;5076203;28;20067;-77
2022/07/29 08:30:29;;;;;;;8.35;2.58;;;19.50;99.90;;;;;;5076212;28;20476;-76
2022/07/29 08:32:54;;;;;;;10.00;3.00;;;19.70;99.90;;;;;;5076042;28;20055;-76
2022/07/29 08:35:21;;;;;;;8.13;2.70;;;19.70;99.90;;;;;;5075920;28;20059;-77
2022/07/29 08:37:47;;;;;;;7.85;2.88;;;19.80;99.90;;;;;;5076215;28;20076;-77
2022/07/29 08:40:14;;;;;;;5.55;2.63;;;19.70;99.90;;;;;;5074792;28;20076;-76
2022/07/29 08:42:39;;;;;;;8.27;2.85;;;19.60;99.90;;;;;;5074847;28;20064;-77
2022/07/29 08:45:06;;;;;;;9.25;2.85;;;19.50;99.90;;;;;;5075687;28;20049;-76
2022/07/29 08:47:33;;;;;;;9.07;2.92;;;19.60;99.90;;;;;;5074734;28;20056;-77
2022/07/29 08:49:58;;;;;;;9.02;3.50;;;19.60;99.90;;;;;;5074669;28;20546;-77
2022/07/29 08:52:25;;;;;;;10.63;3.00;;;19.50;99.90;;;;;;5074625;28;20052;-76
2022/07/29 08:54:53;;;;;;;9.27;2.88;;;19.80;99.90;;;;;;5074595;28;20048;-77
2022/07/29 08:57:19;;;;;;;10.27;3.58;;;20.00;99.90;;;;;;5074535;28;20510;-77
2022/07/29 08:59:46;;;;;;;7.35;3.20;;;20.10;99.90;;;;;;5074410;28;20480;-76
2022/07/29 09:02:21;;;;;;;11.57;3.53;;;20.00;99.90;;;;;;5075007;28;20036;-76
2022/07/29 09:04:48;;;;;;;9.82;3.47;;;19.90;99.90;;;;;;5075308;28;20045;-77
2022/07/29 09:07:18;;;;;;;7.43;3.17;;;19.70;99.90;;;;;;5075389;28;20075;-77
2022/07/29 09:09:45;;;;;;;9.82;4.03;;;19.80;99.90;;;;;;5074399;28;20076;-76
2022/07/29 09:12:11;;;;;;;14.10;4.03;;;20.00;99.90;;;;;;5075208;28;20048;-76
2022/07/29 09:14:40;;;;;;;9.45;3.92;;;20.00;99.90;;;;;;5075727;28;20047;-77
2022/07/29 09:17:07;;;;;;;9.57;3.45;;;19.70;99.90;;;;;;5075415;28;20044;-77
2022/07/29 09:19:35;;;;;;;9.02;3.20;;;19.90;99.90;;;;;;5075237;28;20043;-77
2022/07/29 09:22:05;;;;;;;8.18;2.97;;;19.90;99.90;;;;;;5075235;28;20072;-76
2022/07/29 09:24:34;;;;;;;9.38;3.22;;;19.90;99.90;;;;;;5073781;28;20121;-77
2022/07/29 09:27:01;;;;;;;7.85;4.32;;;19.50;99.90;;;;;;5074785;28;20052;-77
2022/07/29 09:29:27;;;;;;;9.48;3.80;;;19.40;99.90;;;;;;5075178;28;20037;-77
2022/07/29 09:31:54;;;;;;;8.10;3.00;;;19.40;99.90;;;;;;5073613;28;20385;-77
2022/07/29 09:34:25;;;;;;;8.90;3.00;;;19.70;99.90;;;;;;5073539;28;20044;-77
2022/07/29 09:36:52;;;;;;;10.23;3.72;;;19.80;99.90;;;;;;5073542;28;20048;-77
2022/07/29 09:39:38;;;;;;;13.02;4.25;;;20.10;99.90;;;;;;5073338;28;20055;-77
2022/07/29 09:42:05;;;;;;;6.53;3.13;;;19.90;99.90;;;;;;5074706;28;20053;-77
2022/07/29 09:44:45;;;;;;;8.57;3.50;;;19.80;99.90;;;;;;5074797;28;20036;-77
2022/07/29 09:47:10;;;;;;;11.02;4.55;;;19.90;99.90;;;;;;5073272;28;20075;-77
2022/07/29 09:49:57;;;;;;;9.80;3.75;;;19.90;99.90;;;;;;5073594;28;20153;-76
2022/07/29 09:52:24;;;;;;;9.85;3.60;;;19.70;99.90;;;;;;5073579;28;20079;-77
2022/07/29 09:54:50;;;;;;;10.98;3.92;;;19.90;99.90;;;;;;5074689;28;20037;-76
2022/07/29 09:57:27;;;;;;;9.25;4.15;;;20.10;99.90;;;;;;5073104;28;20052;-77
2022/07/29 10:00:18;;;;;;;10.10;3.88;;;20.00;99.90;;;;;;5073228;28;20107;-76
2022/07/29 10:02:46;;;;;;;10.63;3.70;;;20.10;99.90;;;;;;5073017;28;20041;-76
2022/07/29 10:05:23;;;;;;;6.47;3.42;;;20.10;99.90;;;;;;5073157;28;20131;-77
2022/07/29 10:07:57;;;;;;;12.15;4.05;;;19.60;99.90;;;;;;5074484;28;20044;-77
2022/07/29 10:10:27;;;;;;;10.68;3.97;;;19.60;99.90;;;;;;5072892;28;20098;-77
2022/07/29 10:12:58;;;;;;;7.28;3.45;;;19.70;99.90;;;;;;5072845;28;20399;-77
2022/07/29 10:15:26;;;;;;;8.98;3.35;;;19.90;99.90;;;;;;5072387;28;20055;-77
2022/07/29 10:17:55;;;;;;;11.55;3.20;;;20.00;99.90;;;;;;5074497;28;20037;-76
2022/07/29 10:20:21;;;;;;;10.07;3.55;;;19.80;99.90;;;;;;5074238;28;20049;-77
2022/07/29 10:22:50;;;;;;;8.90;3.13;;;19.90;99.90;;;;;;5073831;28;20044;-76
2022/07/29 10:25:17;;;;;;;16.17;3.97;;;19.70;99.90;;;;;;5073745;28;20049;-76
2022/07/29 10:27:44;;;;;;;10.10;4.18;;;20.00;99.90;;;;;;5072566;28;20048;-76
2022/07/29 10:30:11;;;;;;;12.50;4.25;;;20.00;99.90;;;;;;5073731;28;20547;-77
2022/07/29 10:32:40;;;;;;;10.25;3.65;;;20.00;99.90;;;;;;5072735;28;20052;-77
2022/07/29 10:35:38;;;;;;;10.05;3.38;;;20.00;99.90;;;;;;5072727;28;20048;-76
2022/07/29 10:38:41;;;;;;;11.52;4.20;;;19.90;99.90;;;;;;5072683;28;20120;-76
2022/07/29 10:43:53;;;;;;;9.13;3.92;;;19.80;99.90;;;;;;5073634;28;19950;-76
2022/07/29 10:46:19;;;;;;;13.05;4.60;;;19.80;99.90;;;;;;5073493;28;20476;-76
2022/07/29 10:49:12;;;;;;;9.88;3.65;;;19.70;99.90;;;;;;5073712;28;20037;-76
2022/07/29 10:51:50;;;;;;;12.02;4.47;;;19.70;99.90;;;;;;5073635;28;20124;-76
2022/07/29 10:54:17;;;;;;;10.00;3.78;;;19.60;99.90;;;;;;5072120;28;20131;-76
2022/07/29 10:56:42;;;;;;;12.82;3.95;;;19.70;99.90;;;;;;5072491;28;20434;-76
2022/07/29 10:59:20;;;;;;;10.15;3.47;;;19.90;99.90;;;;;;5072192;28;20547;-76
2022/07/29 11:01:47;;;;;;;7.30;3.40;;;20.00;99.90;;;;;;5072255;28;20388;-76
2022/07/29 11:04:13;;;;;;;11.07;3.58;;;20.00;99.90;;;;;;5072037;28;20430;-76
2022/07/29 11:06:58;;;;;;;10.32;3.97;;;20.00;99.90;;;;;;5072167;28;20052;-76
2022/07/29 11:09:23;;;;;;;12.35;4.00;;;20.10;99.90;;;;;;5073304;28;20131;-76
2022/07/29 11:11:49;;;;;;;9.35;4.10;;;20.20;99.90;;;;;;5073580;28;20483;-76
2022/07/29 11:14:17;;;;;;;12.65;4.22;;;20.20;99.90;;;;;;5072310;28;20098;-77
2022/07/29 11:17:01;;;;;;;16.90;4.90;;;20.30;99.90;;;;;;5073587;28;20048;-76
2022/07/29 11:19:27;;;;;;;11.88;4.03;;;20.10;99.90;;;;;;5071946;28;20048;-76
2022/07/29 11:21:54;;;;;;;12.27;4.13;;;20.20;99.90;;;;;;5071999;28;20542;-76
2022/07/29 11:24:28;;;;;;;10.93;4.03;;;20.30;99.90;;;;;;5071868;28;20080;-76
2022/07/29 11:27:10;;;;;;;12.98;4.32;;;20.40;99.90;;;;;;5075572;28;20052;-77
2022/07/29 11:29:40;;;;;;;10.30;4.10;;;20.40;99.90;;;;;;5075911;28;20051;-77
2022/07/29 11:32:15;;;;;;;11.10;4.32;;;20.60;99.90;;;;;;5076206;28;20311;-77
2022/07/29 11:34:41;;;;;;;10.43;3.92;;;20.50;99.90;;;;;;5077339;28;20094;-76
2022/07/29 11:39:34;;;;;;;9.40;3.90;;;20.40;99.90;;;;;;5075765;28;20135;-76
2022/07/29 11:42:24;;;;;;;14.88;4.82;;;20.50;99.90;;;;;;5076017;28;20492;-74
2022/07/29 11:45:02;;;;;;;9.35;4.25;;;20.60;99.90;;;;;;5077163;28;20048;-74
2022/07/29 11:47:28;;;;;;;11.52;4.05;;;20.60;99.90;;;;;;5075819;28;20098;-74
2022/07/29 11:49:56;;;;;;;14.40;4.40;;;20.70;99.90;;;;;;5075545;28;20545;-74
2022/07/29 11:52:23;;;;;;;10.82;4.10;;;20.60;99.90;;;;;;5075521;28;20052;-74
2022/07/29 11:54:50;;;;;;;10.75;4.05;;;20.70;99.90;;;;;;5075354;28;20065;-74
2022/07/29 11:57:17;;;;;;;11.23;4.22;;;20.80;99.90;;;;;;5075356;28;20479;-74
2022/07/29 11:59:45;;;;;;;11.68;4.60;;;20.90;99.90;;;;;;5075305;28;20052;-74
2022/07/29 12:02:12;;;;;;;14.48;4.47;;;20.90;99.90;;;;;;5076458;28;20411;-75
2022/07/29 12:04:56;;;;;;;9.45;4.18;;;20.70;99.90;;;;;;5075531;28;20051;-74
2022/07/29 12:07:33;;;;;;;9.95;4.93;;;20.70;99.90;;;;;;5075220;28;20056;-74
2022/07/29 12:09:59;;;;;;;11.57;4.32;;;20.80;99.90;;;;;;5075402;28;20507;-74
2022/07/29 12:12:25;;;;;;;8.43;4.40;;;20.80;99.90;;;;;;5075319;28;20170;-74
2022/07/29 12:14:51;;;;;;;12.32;4.35;;;20.60;99.90;;;;;;5075076;28;20135;-74
2022/07/29 12:17:33;;;;;;;9.75;4.38;;;20.60;99.90;;;;;;5075233;28;20048;-74
2022/07/29 12:20:03;;;;;;;12.32;4.82;;;20.70;99.90;;;;;;5076410;28;20067;-73
2022/07/29 12:22:41;;;;;;;11.80;3.90;;;20.60;99.90;;;;;;5076220;28;20051;-74
2022/07/29 12:25:09;;;;;;;12.63;4.70;;;20.50;99.90;;;;;;5076256;28;20045;-73
2022/07/29 12:27:37;;;;;;;11.02;4.40;;;20.40;99.90;;;;;;5076322;28;20123;-73
2022/07/29 12:30:08;;;;;;;8.20;4.43;;;20.40;99.90;;;;;;5074771;28;20052;-73
2022/07/29 12:32:39;;;;;;;11.57;5.27;;;20.50;99.90;;;;;;5075407;28;20230;-73
2022/07/29 12:35:09;;;;;;;12.43;5.32;;;20.40;99.90;;;;;;5074760;28;20047;-74
2022/07/29 12:37:37;;;;;;;14.00;5.10;;;20.40;99.90;;;;;;5075891;28;20055;-74
2022/07/29 12:40:05;;;;;;;8.40;4.13;;;20.30;99.90;;;;;;5075976;28;20045;-74
2022/07/29 12:42:31;;;;;;;12.95;4.60;;;20.30;99.90;;;;;;5074802;28;20385;-74
2022/07/29 12:44:57;;;;;;;11.90;4.30;;;20.50;99.90;;;;;;5091375;28;20054;-74
2022/07/29 12:47:23;;;;;;;15.48;5.50;;;20.30;99.90;;;;;;5075843;28;20041;-74
2022/07/29 12:50:08;;;;;;;11.05;4.15;;;20.30;99.90;;;;;;5075931;28;20071;-74
2022/07/29 12:52:34;;;;;;;10.50;5.18;;;20.50;99.90;;;;;;5074628;28;20067;-74
2022/07/29 12:55:00;;;;;;;14.50;5.22;;;20.60;99.90;;;;;;5074589;28;20045;-74
2022/07/29 12:57:27;;;;;;;11.82;4.72;;;20.70;99.90;;;;;;5075834;28;20033;-74
2022/07/29 13:00:22;;;;;;;15.48;5.13;;;20.70;99.90;;;;;;5074616;28;20502;-74
2022/07/29 13:02:55;;;;;;;17.92;5.57;;;20.80;99.90;;;;;;5072643;28;20426;-74